sensor_id;sensor_type;location;lat;lon;timestamp;pressure;altitude;pressure_sealevel;temperature;humidity
7180;BME280;3631;42.152;24.756;2023-04-06T00:00:54;99170.22;;;5.23;85.94
7180;BME280;3631;42.152;24.756;2023-04-06T00:04:01;99170.19;;;5.24;85.70
7180;BME280;3631;42.152;24.756;2023-04-06T00:07:05;99165.81;;;5.31;86.09
7180;BME280;3631;42.152;24.756;2023-04-06T00:09:53;99168.44;;;5.28;85.36
7180;BME280;3631;42.152;24.756;2023-04-06T00:13:03;99161.63;;;5.24;85.57
7180;BME280;3631;42.152;24.756;2023-04-06T00:16:00;99166.75;;;5.25;85.42
7180;BME280;3631;42.152;24.756;2023-04-06T00:19:06;99164.16;;;5.28;85.88
7180;BME280;3631;42.152;24.756;2023-04-06T00:22:02;99153.03;;;5.25;85.64
7180;BME280;3631;42.152;24.756;2023-04-06T00:24:51;99160.84;;;5.19;85.10
7180;BME280;3631;42.152;24.756;2023-04-06T00:31:10;99149.94;;;4.98;85.64
7180;BME280;3631;42.152;24.756;2023-04-06T00:33:55;99150.91;;;4.91;86.15
7180;BME280;3631;42.152;24.756;2023-04-06T00:37:04;99141.59;;;4.81;86.07
7180;BME280;3631;42.152;24.756;2023-04-06T00:40:11;99145.03;;;4.80;85.87
7180;BME280;3631;42.152;24.756;2023-04-06T00:43:20;99120.44;;;4.58;86.67
7180;BME280;3631;42.152;24.756;2023-04-06T00:46:22;99131.56;;;4.57;87.12
7180;BME280;3631;42.152;24.756;2023-04-06T00:49:21;99137.53;;;4.60;86.80
7180;BME280;3631;42.152;24.756;2023-04-06T00:52:05;99134.13;;;4.58;87.14
7180;BME280;3631;42.152;24.756;2023-04-06T00:55:05;99136.72;;;4.55;87.49
7180;BME280;3631;42.152;24.756;2023-04-06T00:57:58;99136.69;;;4.61;86.89
7180;BME280;3631;42.152;24.756;2023-04-06T01:00:54;99129.75;;;4.68;86.55
7180;BME280;3631;42.152;24.756;2023-04-06T01:04:13;99130.59;;;4.67;87.14
7180;BME280;3631;42.152;24.756;2023-04-06T01:07:04;99128.16;;;4.55;87.89
7180;BME280;3631;42.152;24.756;2023-04-06T01:10:03;99117.09;;;4.51;87.80
7180;BME280;3631;42.152;24.756;2023-04-06T01:13:06;99118.75;;;4.52;87.85
7180;BME280;3631;42.152;24.756;2023-04-06T01:16:01;99125.78;;;4.40;87.71
7180;BME280;3631;42.152;24.756;2023-04-06T01:19:22;99110.38;;;4.40;87.73
7180;BME280;3631;42.152;24.756;2023-04-06T01:22:22;99111.25;;;4.35;88.84
7180;BME280;3631;42.152;24.756;2023-04-06T01:25:18;99114.69;;;4.31;88.40
7180;BME280;3631;42.152;24.756;2023-04-06T01:28:22;99105.38;;;4.24;88.94
7180;BME280;3631;42.152;24.756;2023-04-06T01:31:22;99098.53;;;4.23;89.30
7180;BME280;3631;42.152;24.756;2023-04-06T01:34:22;99100.22;;;4.24;89.38
7180;BME280;3631;42.152;24.756;2023-04-06T01:37:23;99097.69;;;4.21;89.62
7180;BME280;3631;42.152;24.756;2023-04-06T01:40:21;99097.66;;;4.24;89.66
7180;BME280;3631;42.152;24.756;2023-04-06T01:43:20;99096.91;;;4.13;90.16
7180;BME280;3631;42.152;24.756;2023-04-06T01:46:20;99088.25;;;4.22;89.48
7180;BME280;3631;42.152;24.756;2023-04-06T01:49:16;99084.84;;;4.20;89.37
7180;BME280;3631;42.152;24.756;2023-04-06T01:52:04;99090.84;;;4.19;89.38
7180;BME280;3631;42.152;24.756;2023-04-06T01:58:13;99083.13;;;4.20;89.56
7180;BME280;3631;42.152;24.756;2023-04-06T02:01:03;99073.69;;;4.22;89.01
7180;BME280;3631;42.152;24.756;2023-04-06T02:04:02;99057.53;;;4.14;88.92
7180;BME280;3631;42.152;24.756;2023-04-06T02:07:03;99072.84;;;4.23;88.53
7180;BME280;3631;42.152;24.756;2023-04-06T02:10:10;99075.41;;;4.23;88.34
7180;BME280;3631;42.152;24.756;2023-04-06T02:13:14;99067.03;;;4.06;89.26
7180;BME280;3631;42.152;24.756;2023-04-06T02:16:14;99055.91;;;4.06;89.55
7180;BME280;3631;42.152;24.756;2023-04-06T02:19:12;99065.28;;;4.08;88.78
7180;BME280;3631;42.152;24.756;2023-04-06T02:22:12;99078.94;;;4.15;88.85
7180;BME280;3631;42.152;24.756;2023-04-06T02:25:14;99072.94;;;4.14;89.25
7180;BME280;3631;42.152;24.756;2023-04-06T02:34:47;99079.91;;;4.03;89.78
7180;BME280;3631;42.152;24.756;2023-04-06T02:37:43;99082.44;;;4.06;89.40
7180;BME280;3631;42.152;24.756;2023-04-06T02:40:39;99088.41;;;4.07;89.42
7180;BME280;3631;42.152;24.756;2023-04-06T02:43:23;99089.31;;;4.04;89.20
7180;BME280;3631;42.152;24.756;2023-04-06T02:46:23;99088.44;;;4.05;89.45
7180;BME280;3631;42.152;24.756;2023-04-06T02:49:22;99087.59;;;4.06;89.68
7180;BME280;3631;42.152;24.756;2023-04-06T02:52:14;99087.59;;;4.06;89.96
7180;BME280;3631;42.152;24.756;2023-04-06T02:55:07;99087.59;;;4.03;90.38
7180;BME280;3631;42.152;24.756;2023-04-06T02:58:12;99087.59;;;4.06;89.78
7180;BME280;3631;42.152;24.756;2023-04-06T03:01:09;99078.28;;;3.91;90.80
7180;BME280;3631;42.152;24.756;2023-04-06T03:03:57;99090.22;;;3.95;90.60
7180;BME280;3631;42.152;24.756;2023-04-06T03:06:57;99092.84;;;3.92;91.05
7180;BME280;3631;42.152;24.756;2023-04-06T03:09:47;99078.28;;;3.93;91.14
7180;BME280;3631;42.152;24.756;2023-04-06T03:12:35;99079.19;;;3.86;90.69
7180;BME280;3631;42.152;24.756;2023-04-06T03:15:19;99085.94;;;3.97;90.93
7180;BME280;3631;42.152;24.756;2023-04-06T03:18:24;99085.94;;;3.96;90.93
7180;BME280;3631;42.152;24.756;2023-04-06T03:21:05;99079.19;;;3.86;91.33
7180;BME280;3631;42.152;24.756;2023-04-06T03:23:37;99086.94;;;3.80;91.47
7180;BME280;3631;42.152;24.756;2023-04-06T03:26:17;99087.81;;;3.79;91.66
7180;BME280;3631;42.152;24.756;2023-04-06T03:28:49;99080.13;;;3.77;92.34
7180;BME280;3631;42.152;24.756;2023-04-06T03:31:19;99088.66;;;3.79;92.05
7180;BME280;3631;42.152;24.756;2023-04-06T03:34:08;99084.41;;;3.78;92.19
7180;BME280;3631;42.152;24.756;2023-04-06T03:36:39;99068.22;;;3.72;92.51
7180;BME280;3631;42.152;24.756;2023-04-06T03:39:15;99082.59;;;3.89;92.01
7180;BME280;3631;42.152;24.756;2023-04-06T03:42:01;99086.88;;;3.87;92.38
7180;BME280;3631;42.152;24.756;2023-04-06T03:44:44;99074.09;;;3.83;91.75
7180;BME280;3631;42.152;24.756;2023-04-06T03:47:35;99085.16;;;3.91;91.56
7180;BME280;3631;42.152;24.756;2023-04-06T03:50:15;99090.28;;;3.89;91.46
7180;BME280;3631;42.152;24.756;2023-04-06T03:52:53;99084.25;;;3.95;91.53
7180;BME280;3631;42.152;24.756;2023-04-06T03:55:32;99087.66;;;3.95;91.24
7180;BME280;3631;42.152;24.756;2023-04-06T03:58:10;99079.13;;;3.95;91.35
7180;BME280;3631;42.152;24.756;2023-04-06T04:01:05;99077.34;;;4.03;92.05
7180;BME280;3631;42.152;24.756;2023-04-06T04:03:48;99082.41;;;4.08;91.56
7180;BME280;3631;42.152;24.756;2023-04-06T04:06:28;99080.66;;;4.11;91.16
7180;BME280;3631;42.152;24.756;2023-04-06T04:09:10;99089.13;;;4.22;90.33
7180;BME280;3631;42.152;24.756;2023-04-06T04:11:50;99084.75;;;4.30;89.67
7180;BME280;3631;42.152;24.756;2023-04-06T04:14:38;99085.47;;;4.42;89.55
7180;BME280;3631;42.152;24.756;2023-04-06T04:17:31;99078.53;;;4.51;88.76
7180;BME280;3631;42.152;24.756;2023-04-06T04:20:21;99052.03;;;4.48;87.41
7180;BME280;3631;42.152;24.756;2023-04-06T04:23:06;99064.78;;;4.55;87.51
7180;BME280;3631;42.152;24.756;2023-04-06T04:25:57;99076.63;;;4.67;87.46
7180;BME280;3631;42.152;24.756;2023-04-06T04:28:46;99083.44;;;4.71;87.01
7180;BME280;3631;42.152;24.756;2023-04-06T04:31:55;99084.19;;;4.78;86.23
7180;BME280;3631;42.152;24.756;2023-04-06T04:34:47;99090.94;;;4.88;86.26
7180;BME280;3631;42.152;24.756;2023-04-06T04:37:48;99075.56;;;4.85;86.28
7180;BME280;3631;42.152;24.756;2023-04-06T04:40:44;99084.94;;;4.86;85.75
7180;BME280;3631;42.152;24.756;2023-04-06T04:43:44;99084.91;;;4.90;85.95
7180;BME280;3631;42.152;24.756;2023-04-06T04:49:55;99075.34;;;5.00;84.98
7180;BME280;3631;42.152;24.756;2023-04-06T04:52:56;99081.31;;;5.02;84.78
7180;BME280;3631;42.152;24.756;2023-04-06T04:55:58;99082.16;;;5.04;84.99
7180;BME280;3631;42.152;24.756;2023-04-06T04:59:07;99079.59;;;5.02;85.24
7180;BME280;3631;42.152;24.756;2023-04-06T05:02:06;99078.72;;;5.05;84.78
7180;BME280;3631;42.152;24.756;2023-04-06T05:05:20;99074.31;;;5.13;84.93
7180;BME280;3631;42.152;24.756;2023-04-06T05:08:19;99062.28;;;5.14;85.05
7180;BME280;3631;42.152;24.756;2023-04-06T05:11:40;99070.88;;;5.13;85.05
7180;BME280;3631;42.152;24.756;2023-04-06T05:14:25;99080.97;;;5.28;84.43
7180;BME280;3631;42.152;24.756;2023-04-06T05:17:11;99065.41;;;5.34;83.45
7180;BME280;3631;42.152;24.756;2023-04-06T05:20:06;99077.03;;;5.61;83.80
7180;BME280;3631;42.152;24.756;2023-04-06T05:26:13;99079.75;;;6.04;81.00
7180;BME280;3631;42.152;24.756;2023-04-06T05:28:54;99078.53;;;6.25;80.64
7180;BME280;3631;42.152;24.756;2023-04-06T05:31:36;99078.19;;;6.43;79.84
7180;BME280;3631;42.152;24.756;2023-04-06T05:34:09;99077.88;;;6.58;79.33
7180;BME280;3631;42.152;24.756;2023-04-06T05:36:42;99070.75;;;6.71;79.02
7180;BME280;3631;42.152;24.756;2023-04-06T05:39:16;99073.88;;;6.86;78.78
7180;BME280;3631;42.152;24.756;2023-04-06T05:45:57;99067.56;;;7.74;75.84
7180;BME280;3631;42.152;24.756;2023-04-06T05:48:57;99067.66;;;8.05;74.72
7180;BME280;3631;42.152;24.756;2023-04-06T05:52:08;99064.94;;;8.43;73.19
7180;BME280;3631;42.152;24.756;2023-04-06T05:54:55;99052.75;;;9.35;71.25
7180;BME280;3631;42.152;24.756;2023-04-06T05:57:37;99063.50;;;10.76;67.01
7180;BME280;3631;42.152;24.756;2023-04-06T06:00:24;99055.50;;;11.49;64.39
7180;BME280;3631;42.152;24.756;2023-04-06T06:03:09;99066.81;;;12.90;59.54
7180;BME280;3631;42.152;24.756;2023-04-06T06:06:02;99060.06;;;14.47;53.31
7180;BME280;3631;42.152;24.756;2023-04-06T06:08:58;99055.97;;;14.59;51.03
7180;BME280;3631;42.152;24.756;2023-04-06T06:11:44;99056.13;;;14.89;49.14
7180;BME280;3631;42.152;24.756;2023-04-06T06:14:26;99042.81;;;16.02;45.71
7180;BME280;3631;42.152;24.756;2023-04-06T06:17:20;99051.03;;;16.97;41.83
7180;BME280;3631;42.152;24.756;2023-04-06T06:20:15;99047.81;;;18.01;38.50
7180;BME280;3631;42.152;24.756;2023-04-06T06:22:52;99046.44;;;18.60;36.77
7180;BME280;3631;42.152;24.756;2023-04-06T06:25:36;99044.00;;;19.19;36.39
7180;BME280;3631;42.152;24.756;2023-04-06T06:28:23;99052.72;;;20.39;34.10
7180;BME280;3631;42.152;24.756;2023-04-06T06:31:08;99056.22;;;21.17;32.54
7180;BME280;3631;42.152;24.756;2023-04-06T06:33:52;99051.06;;;21.05;31.63
7180;BME280;3631;42.152;24.756;2023-04-06T06:36:42;99043.63;;;20.43;31.86
7180;BME280;3631;42.152;24.756;2023-04-06T06:39:33;99045.88;;;20.01;32.19
7180;BME280;3631;42.152;24.756;2023-04-06T06:42:42;99055.31;;;19.69;32.55
7180;BME280;3631;42.152;24.756;2023-04-06T06:45:47;99055.78;;;20.33;32.26
7180;BME280;3631;42.152;24.756;2023-04-06T06:48:20;99054.44;;;21.07;30.63
7180;BME280;3631;42.152;24.756;2023-04-06T06:50:47;99056.84;;;21.75;29.77
7180;BME280;3631;42.152;24.756;2023-04-06T06:53:16;99042.84;;;22.16;29.41
7180;BME280;3631;42.152;24.756;2023-04-06T06:55:43;99057.53;;;21.34;29.74
7180;BME280;3631;42.152;24.756;2023-04-06T06:58:11;99044.00;;;20.49;31.12
7180;BME280;3631;42.152;24.756;2023-04-06T07:00:38;99039.91;;;21.01;30.59
7180;BME280;3631;42.152;24.756;2023-04-06T07:03:05;99037.88;;;21.05;30.15
7180;BME280;3631;42.152;24.756;2023-04-06T07:05:33;99040.50;;;21.27;30.00
7180;BME280;3631;42.152;24.756;2023-04-06T07:08:00;99043.38;;;21.24;29.74
7180;BME280;3631;42.152;24.756;2023-04-06T07:11:05;99045.56;;;21.08;30.13
7180;BME280;3631;42.152;24.756;2023-04-06T07:13:50;99044.34;;;21.12;30.60
7180;BME280;3631;42.152;24.756;2023-04-06T07:16:24;99046.38;;;22.05;29.54
7180;BME280;3631;42.152;24.756;2023-04-06T07:19:14;99047.88;;;22.19;28.75
7180;BME280;3631;42.152;24.756;2023-04-06T07:22:04;99042.88;;;22.46;28.83
7180;BME280;3631;42.152;24.756;2023-04-06T07:24:57;99049.81;;;23.29;27.64
7180;BME280;3631;42.152;24.756;2023-04-06T07:31:13;99053.47;;;21.73;28.99
7180;BME280;3631;42.152;24.756;2023-04-06T07:34:23;99045.16;;;22.51;28.71
7180;BME280;3631;42.152;24.756;2023-04-06T07:37:16;99049.09;;;24.25;27.05
7180;BME280;3631;42.152;24.756;2023-04-06T07:40:22;99056.50;;;24.78;25.82
7180;BME280;3631;42.152;24.756;2023-04-06T07:43:13;99041.59;;;23.23;27.25
7180;BME280;3631;42.152;24.756;2023-04-06T07:46:23;99044.69;;;24.53;26.29
7180;BME280;3631;42.152;24.756;2023-04-06T07:49:22;99052.19;;;24.67;25.95
7180;BME280;3631;42.152;24.756;2023-04-06T07:52:11;99044.66;;;24.63;26.10
7180;BME280;3631;42.152;24.756;2023-04-06T07:55:04;99041.31;;;24.60;26.14
7180;BME280;3631;42.152;24.756;2023-04-06T07:57:42;99045.84;;;25.24;25.39
7180;BME280;3631;42.152;24.756;2023-04-06T08:00:19;99053.19;;;25.76;25.20
7180;BME280;3631;42.152;24.756;2023-04-06T08:03:12;99046.28;;;25.65;25.09
7180;BME280;3631;42.152;24.756;2023-04-06T08:05:53;99044.34;;;23.80;26.21
7180;BME280;3631;42.152;24.756;2023-04-06T08:08:28;99047.75;;;25.05;25.11
7180;BME280;3631;42.152;24.756;2023-04-06T08:11:07;99037.13;;;26.38;23.98
7180;BME280;3631;42.152;24.756;2023-04-06T08:13:50;99039.19;;;26.09;24.00
7180;BME280;3631;42.152;24.756;2023-04-06T08:16:23;99034.97;;;26.42;24.04
7180;BME280;3631;42.152;24.756;2023-04-06T08:19:14;99021.22;;;26.03;24.02
7180;BME280;3631;42.152;24.756;2023-04-06T08:22:04;99035.50;;;25.66;24.67
7180;BME280;3631;42.152;24.756;2023-04-06T08:24:56;99034.38;;;25.69;24.59
7180;BME280;3631;42.152;24.756;2023-04-06T08:28:06;99034.81;;;24.45;25.71
7180;BME280;3631;42.152;24.756;2023-04-06T08:31:14;99027.13;;;23.36;26.98
7180;BME280;3631;42.152;24.756;2023-04-06T08:34:12;99018.56;;;24.58;25.73
7180;BME280;3631;42.152;24.756;2023-04-06T08:37:17;99016.56;;;24.23;26.13
7180;BME280;3631;42.152;24.756;2023-04-06T08:40:22;99004.81;;;23.39;26.86
7180;BME280;3631;42.152;24.756;2023-04-06T08:43:13;99007.81;;;23.15;27.56
7180;BME280;3631;42.152;24.756;2023-04-06T08:46:22;99010.19;;;23.58;26.89
7180;BME280;3631;42.152;24.756;2023-04-06T08:56:03;98986.66;;;19.72;31.64
7180;BME280;3631;42.152;24.756;2023-04-06T08:59:02;98980.22;;;18.92;32.88
7180;BME280;3631;42.152;24.756;2023-04-06T09:02:17;98987.66;;;20.39;31.64
7180;BME280;3631;42.152;24.756;2023-04-06T09:05:19;98981.47;;;22.33;28.82
7180;BME280;3631;42.152;24.756;2023-04-06T09:08:33;98988.53;;;23.72;26.56
7180;BME280;3631;42.152;24.756;2023-04-06T09:11:28;98987.44;;;24.50;26.37
7180;BME280;3631;42.152;24.756;2023-04-06T09:14:45;98974.19;;;25.15;25.43
7180;BME280;3631;42.152;24.756;2023-04-06T09:17:32;98970.69;;;23.45;26.65
7180;BME280;3631;42.152;24.756;2023-04-06T09:20:46;98963.00;;;23.23;26.94
7180;BME280;3631;42.152;24.756;2023-04-06T09:27:16;98973.41;;;24.31;25.96
7180;BME280;3631;42.152;24.756;2023-04-06T09:30:08;98961.97;;;22.65;27.08
7180;BME280;3631;42.152;24.756;2023-04-06T09:33:21;98957.28;;;20.34;29.29
7180;BME280;3631;42.152;24.756;2023-04-06T09:36:11;98951.47;;;19.01;30.91
7180;BME280;3631;42.152;24.756;2023-04-06T09:39:04;98940.22;;;18.50;32.07
7180;BME280;3631;42.152;24.756;2023-04-06T09:41:37;98945.72;;;19.79;30.81
7180;BME280;3631;42.152;24.756;2023-04-06T09:44:32;98946.31;;;21.80;28.28
7180;BME280;3631;42.152;24.756;2023-04-06T09:47:16;98944.16;;;23.16;28.09
7180;BME280;3631;42.152;24.756;2023-04-06T09:50:18;98946.25;;;23.13;27.33
7180;BME280;3631;42.152;24.756;2023-04-06T09:53:05;98933.47;;;22.07;28.18
7180;BME280;3631;42.152;24.756;2023-04-06T09:55:54;98937.16;;;20.10;30.36
7180;BME280;3631;42.152;24.756;2023-04-06T09:58:56;98934.53;;;18.56;32.31
7180;BME280;3631;42.152;24.756;2023-04-06T10:02:04;98930.59;;;18.00;34.43
7180;BME280;3631;42.152;24.756;2023-04-06T10:04:55;98918.22;;;17.62;35.16
7180;BME280;3631;42.152;24.756;2023-04-06T10:07:39;98937.06;;;17.02;36.78
7180;BME280;3631;42.152;24.756;2023-04-06T10:10:16;98915.09;;;16.07;37.18
7180;BME280;3631;42.152;24.756;2023-04-06T10:12:55;98917.59;;;15.94;38.19
7180;BME280;3631;42.152;24.756;2023-04-06T10:15:38;98915.59;;;15.70;39.17
7180;BME280;3631;42.152;24.756;2023-04-06T10:18:32;98906.75;;;15.86;39.34
7180;BME280;3631;42.152;24.756;2023-04-06T10:21:35;98901.34;;;15.89;38.50
7180;BME280;3631;42.152;24.756;2023-04-06T10:24:31;98895.06;;;16.06;37.85
7180;BME280;3631;42.152;24.756;2023-04-06T10:27:11;98903.31;;;16.00;38.00
7180;BME280;3631;42.152;24.756;2023-04-06T10:29:51;98903.56;;;15.95;38.30
7180;BME280;3631;42.152;24.756;2023-04-06T10:32:48;98901.88;;;15.80;37.82
7180;BME280;3631;42.152;24.756;2023-04-06T10:35:55;98891.16;;;15.25;39.75
7180;BME280;3631;42.152;24.756;2023-04-06T10:38:44;98888.91;;;15.19;40.48
7180;BME280;3631;42.152;24.756;2023-04-06T10:41:12;98886.16;;;15.06;40.47
7180;BME280;3631;42.152;24.756;2023-04-06T10:43:41;98886.28;;;14.89;40.79
7180;BME280;3631;42.152;24.756;2023-04-06T10:46:09;98888.59;;;15.09;40.79
7180;BME280;3631;42.152;24.756;2023-04-06T10:48:38;98884.00;;;15.29;40.69
7180;BME280;3631;42.152;24.756;2023-04-06T10:51:12;98879.31;;;15.19;40.96
7180;BME280;3631;42.152;24.756;2023-04-06T10:53:41;98874.75;;;15.37;39.67
7180;BME280;3631;42.152;24.756;2023-04-06T10:56:10;98876.03;;;15.46;39.03
7180;BME280;3631;42.152;24.756;2023-04-06T10:58:43;98876.75;;;15.34;39.54
7180;BME280;3631;42.152;24.756;2023-04-06T11:01:11;98872.91;;;15.09;38.98
7180;BME280;3631;42.152;24.756;2023-04-06T11:03:43;98877.69;;;15.17;39.36
7180;BME280;3631;42.152;24.756;2023-04-06T11:06:17;98867.16;;;15.18;39.09
7180;BME280;3631;42.152;24.756;2023-04-06T11:08:45;98858.72;;;15.13;39.19
7180;BME280;3631;42.152;24.756;2023-04-06T11:11:14;98864.50;;;15.04;38.96
7180;BME280;3631;42.152;24.756;2023-04-06T11:13:45;98864.81;;;15.14;40.65
7180;BME280;3631;42.152;24.756;2023-04-06T11:16:16;98868.63;;;15.08;38.18
7180;BME280;3631;42.152;24.756;2023-04-06T11:19:03;98864.31;;;15.07;37.57
7180;BME280;3631;42.152;24.756;2023-04-06T11:22:06;98854.03;;;15.04;38.44
7180;BME280;3631;42.152;24.756;2023-04-06T11:24:35;98858.72;;;15.13;38.58
7180;BME280;3631;42.152;24.756;2023-04-06T11:27:10;98850.78;;;15.01;39.32
7180;BME280;3631;42.152;24.756;2023-04-06T11:29:52;98847.34;;;14.84;39.77
7180;BME280;3631;42.152;24.756;2023-04-06T11:32:42;98844.66;;;14.86;40.16
7180;BME280;3631;42.152;24.756;2023-04-06T11:35:38;98830.88;;;14.98;39.21
7180;BME280;3631;42.152;24.756;2023-04-06T11:41:52;98848.88;;;15.03;39.15
7180;BME280;3631;42.152;24.756;2023-04-06T11:44:58;98849.56;;;15.06;39.36
7180;BME280;3631;42.152;24.756;2023-04-06T11:47:54;98848.34;;;14.82;39.37
7180;BME280;3631;42.152;24.756;2023-04-06T11:50:39;98844.69;;;14.55;39.92
7180;BME280;3631;42.152;24.756;2023-04-06T11:53:27;98840.41;;;14.53;40.16
7180;BME280;3631;42.152;24.756;2023-04-06T11:56:30;98837.25;;;14.31;40.67
7180;BME280;3631;42.152;24.756;2023-04-06T11:59:30;98834.03;;;14.26;40.52
7180;BME280;3631;42.152;24.756;2023-04-06T12:02:10;98841.03;;;14.26;41.55
7180;BME280;3631;42.152;24.756;2023-04-06T12:04:55;98836.22;;;14.18;40.21
7180;BME280;3631;42.152;24.756;2023-04-06T12:07:40;98832.47;;;14.39;40.68
7180;BME280;3631;42.152;24.756;2023-04-06T12:10:26;98832.47;;;14.39;39.72
7180;BME280;3631;42.152;24.756;2023-04-06T12:13:14;98827.75;;;14.46;40.46
7180;BME280;3631;42.152;24.756;2023-04-06T12:16:06;98835.56;;;14.62;40.18
7180;BME280;3631;42.152;24.756;2023-04-06T12:19:00;98827.81;;;14.60;40.11
7180;BME280;3631;42.152;24.756;2023-04-06T12:21:49;98824.72;;;14.53;40.41
7180;BME280;3631;42.152;24.756;2023-04-06T12:24:34;98826.28;;;14.56;40.23
7180;BME280;3631;42.152;24.756;2023-04-06T12:27:25;98826.41;;;14.55;40.63
7180;BME280;3631;42.152;24.756;2023-04-06T12:30:22;98827.91;;;14.59;40.43
7180;BME280;3631;42.152;24.756;2023-04-06T12:33:21;98829.03;;;14.55;40.70
7180;BME280;3631;42.152;24.756;2023-04-06T12:36:05;98827.56;;;14.65;41.15
7180;BME280;3631;42.152;24.756;2023-04-06T12:39:03;98819.63;;;14.82;40.74
7180;BME280;3631;42.152;24.756;2023-04-06T12:41:48;98823.03;;;14.98;39.62
7180;BME280;3631;42.152;24.756;2023-04-06T12:44:39;98812.38;;;15.01;40.29
7180;BME280;3631;42.152;24.756;2023-04-06T12:47:24;98822.31;;;14.80;40.09
7180;BME280;3631;42.152;24.756;2023-04-06T12:50:01;98812.63;;;14.82;40.45
7180;BME280;3631;42.152;24.756;2023-04-06T12:52:42;98808.31;;;14.81;40.22
7180;BME280;3631;42.152;24.756;2023-04-06T12:55:37;98811.91;;;14.65;40.75
7180;BME280;3631;42.152;24.756;2023-04-06T12:58:23;98813.16;;;14.58;40.83
7180;BME280;3631;42.152;24.756;2023-04-06T13:01:22;98809.22;;;14.66;40.94
7180;BME280;3631;42.152;24.756;2023-04-06T13:04:17;98815.69;;;14.75;40.67
7180;BME280;3631;42.152;24.756;2023-04-06T13:07:15;98811.81;;;14.66;40.57
7180;BME280;3631;42.152;24.756;2023-04-06T13:10:02;98803.56;;;14.58;41.02
7180;BME280;3631;42.152;24.756;2023-04-06T13:12:48;98807.16;;;14.71;40.33
7180;BME280;3631;42.152;24.756;2023-04-06T13:15:19;98811.38;;;14.74;40.28
7180;BME280;3631;42.152;24.756;2023-04-06T13:17:56;98808.75;;;14.74;40.92
7180;BME280;3631;42.152;24.756;2023-04-06T13:20:34;98805.06;;;14.78;41.00
7180;BME280;3631;42.152;24.756;2023-04-06T13:23:23;98805.31;;;14.58;41.46
7180;BME280;3631;42.152;24.756;2023-04-06T13:26:05;98799.88;;;14.46;41.47
7180;BME280;3631;42.152;24.756;2023-04-06T13:29:00;98798.38;;;14.42;41.73
7180;BME280;3631;42.152;24.756;2023-04-06T13:31:49;98800.78;;;14.14;40.59
7180;BME280;3631;42.152;24.756;2023-04-06T13:34:49;98806.56;;;14.03;41.24
7180;BME280;3631;42.152;24.756;2023-04-06T13:37:46;98798.81;;;13.86;41.35
7180;BME280;3631;42.152;24.756;2023-04-06T13:40:46;98801.66;;;13.81;42.13
7180;BME280;3631;42.152;24.756;2023-04-06T13:43:38;98803.19;;;13.86;41.71
7180;BME280;3631;42.152;24.756;2023-04-06T13:46:26;98792.91;;;13.82;42.00
7180;BME280;3631;42.152;24.756;2023-04-06T13:49:23;98796.59;;;13.78;42.00
7180;BME280;3631;42.152;24.756;2023-04-06T13:52:09;98790.47;;;13.47;42.46
7180;BME280;3631;42.152;24.756;2023-04-06T13:55:19;98789.41;;;13.51;42.52
7180;BME280;3631;42.152;24.756;2023-04-06T13:58:36;98785.69;;;13.39;42.15
7180;BME280;3631;42.152;24.756;2023-04-06T14:01:31;98798.16;;;13.32;42.36
7180;BME280;3631;42.152;24.756;2023-04-06T14:04:23;98792.75;;;13.20;42.47
7180;BME280;3631;42.152;24.756;2023-04-06T14:07:08;98787.84;;;13.31;42.13
7180;BME280;3631;42.152;24.756;2023-04-06T14:10:05;98791.88;;;13.36;42.44
7180;BME280;3631;42.152;24.756;2023-04-06T14:12:43;98769.31;;;13.20;41.99
7180;BME280;3631;42.152;24.756;2023-04-06T14:15:22;98790.06;;;13.21;42.82
7180;BME280;3631;42.152;24.756;2023-04-06T14:17:50;98782.56;;;13.15;42.20
7180;BME280;3631;42.152;24.756;2023-04-06T14:20:23;98781.66;;;13.16;41.63
7180;BME280;3631;42.152;24.756;2023-04-06T14:22:56;98784.09;;;13.19;41.90
7180;BME280;3631;42.152;24.756;2023-04-06T14:25:28;98787.69;;;13.17;42.08
7180;BME280;3631;42.152;24.756;2023-04-06T14:28:10;98781.00;;;13.11;42.03
7180;BME280;3631;42.152;24.756;2023-04-06T14:31:13;98785.22;;;13.14;42.13
7180;BME280;3631;42.152;24.756;2023-04-06T14:34:11;98785.47;;;13.09;42.29
7180;BME280;3631;42.152;24.756;2023-04-06T14:37:01;98776.50;;;12.97;42.01
7180;BME280;3631;42.152;24.756;2023-04-06T14:39:57;98789.66;;;13.12;42.13
7180;BME280;3631;42.152;24.756;2023-04-06T14:42:47;98791.00;;;13.20;42.11
7180;BME280;3631;42.152;24.756;2023-04-06T14:45:41;98782.75;;;13.10;42.18
7180;BME280;3631;42.152;24.756;2023-04-06T14:48:28;98790.38;;;13.15;41.86
7180;BME280;3631;42.152;24.756;2023-04-06T14:51:04;98791.28;;;13.14;42.21
7180;BME280;3631;42.152;24.756;2023-04-06T14:53:46;98790.81;;;13.23;42.00
7180;BME280;3631;42.152;24.756;2023-04-06T14:56:23;98791.53;;;13.27;41.74
7180;BME280;3631;42.152;24.756;2023-04-06T14:59:00;98802.34;;;13.19;41.40
7180;BME280;3631;42.152;24.756;2023-04-06T15:01:41;98795.53;;;13.17;42.15
7180;BME280;3631;42.152;24.756;2023-04-06T15:04:36;98796.28;;;13.19;41.77
7180;BME280;3631;42.152;24.756;2023-04-06T15:07:30;98792.91;;;13.17;41.99
7180;BME280;3631;42.152;24.756;2023-04-06T15:10:19;98790.50;;;13.12;42.13
7180;BME280;3631;42.152;24.756;2023-04-06T15:12:54;98793.03;;;13.14;42.21
7180;BME280;3631;42.152;24.756;2023-04-06T15:19:06;98795.19;;;13.05;41.67
7180;BME280;3631;42.152;24.756;2023-04-06T15:25:22;98804.22;;;12.98;41.72
7180;BME280;3631;42.152;24.756;2023-04-06T15:28:13;98804.38;;;12.95;42.09
7180;BME280;3631;42.152;24.756;2023-04-06T15:30:53;98810.97;;;12.85;42.23
7180;BME280;3631;42.152;24.756;2023-04-06T15:33:34;98815.25;;;12.86;42.26
7180;BME280;3631;42.152;24.756;2023-04-06T15:36:43;98814.16;;;12.73;42.50
7180;BME280;3631;42.152;24.756;2023-04-06T15:39:25;98810.22;;;12.64;42.18
7180;BME280;3631;42.152;24.756;2023-04-06T15:42:27;98819.81;;;12.64;42.32
7180;BME280;3631;42.152;24.756;2023-04-06T15:45:09;98816.19;;;12.49;42.86
7180;BME280;3631;42.152;24.756;2023-04-06T15:47:49;98826.03;;;12.43;42.60
7180;BME280;3631;42.152;24.756;2023-04-06T15:50:28;98823.34;;;12.44;42.13
7180;BME280;3631;42.152;24.756;2023-04-06T15:53:10;98826.47;;;12.33;42.74
7180;BME280;3631;42.152;24.756;2023-04-06T15:55:49;98823.78;;;12.35;42.36
7180;BME280;3631;42.152;24.756;2023-04-06T15:58:24;98824.94;;;12.29;42.23
7180;BME280;3631;42.152;24.756;2023-04-06T16:01:16;98830.41;;;12.23;43.03
7180;BME280;3631;42.152;24.756;2023-04-06T16:04:02;98834.06;;;12.19;43.23